Time;durP1;ratioP1;P1;durP2;ratioP2;P2;SDS_P1;SDS_P2;PMS_P1;PMS_P2;Temp;Humidity;BMP_temperature;BMP_pressure;BME280_temperature;BME280_humidity;BME280_pressure;Samples;Min_cycle;Max_cycle;Signal;HPM_P1;HPM_P2
2024/02/24 00:00:51;;;;;;;6.20;3.33;;;6.40;99.90;;;;;;812193;175;26440;-80
2024/02/24 00:03:17;;;;;;;5.73;3.17;;;6.40;99.90;;;;;;791145;169;26559;-78
2024/02/24 00:05:44;;;;;;;5.97;2.70;;;6.40;99.90;;;;;;789067;179;26609;-76
2024/02/24 00:08:11;;;;;;;6.33;2.40;;;6.40;99.90;;;;;;789502;179;26486;-78
2024/02/24 00:10:38;;;;;;;4.03;2.60;;;6.40;99.90;;;;;;792726;179;27563;-79
2024/02/24 00:13:04;;;;;;;7.23;3.70;;;6.40;99.90;;;;;;771639;183;27062;-79
2024/02/24 00:15:30;;;;;;;5.93;3.10;;;6.40;99.90;;;;;;769636;183;26576;-78
2024/02/24 00:17:57;;;;;;;4.23;2.87;;;6.50;99.90;;;;;;765835;186;26527;-78
2024/02/24 00:20:24;;;;;;;6.73;4.30;;;6.50;99.90;;;;;;774020;184;26585;-80
2024/02/24 00:22:50;;;;;;;5.47;3.10;;;6.50;99.90;;;;;;776252;183;26502;-79
2024/02/24 00:25:17;;;;;;;5.37;2.70;;;6.60;99.90;;;;;;783777;182;26501;-76
2024/02/24 00:27:43;;;;;;;5.83;3.30;;;6.60;99.90;;;;;;784035;183;26492;-80
2024/02/24 00:30:12;;;;;;;5.80;2.67;;;6.60;99.90;;;;;;774847;182;26462;-79
2024/02/24 00:32:38;;;;;;;5.20;3.37;;;6.60;99.90;;;;;;780934;182;26510;-79
2024/02/24 00:35:06;;;;;;;5.20;2.93;;;6.60;99.90;;;;;;774735;182;26517;-79
2024/02/24 00:37:32;;;;;;;8.73;3.33;;;6.60;99.90;;;;;;778772;183;26510;-79
2024/02/24 00:39:59;;;;;;;5.53;3.10;;;6.60;99.90;;;;;;786191;183;26688;-78
2024/02/24 00:42:25;;;;;;;9.43;4.83;;;6.60;99.90;;;;;;773783;183;26594;-81
2024/02/24 00:44:52;;;;;;;3.90;2.73;;;6.60;99.90;;;;;;779362;182;26505;-78
2024/02/24 00:47:20;;;;;;;4.03;2.90;;;6.50;99.90;;;;;;777309;182;26517;-79
2024/02/24 00:49:47;;;;;;;4.77;3.20;;;6.40;99.90;;;;;;776665;182;26594;-78
2024/02/24 00:52:14;;;;;;;3.97;2.60;;;6.40;99.90;;;;;;781924;183;26502;-79
2024/02/24 00:54:40;;;;;;;3.90;2.40;;;6.40;99.90;;;;;;778897;183;26521;-77
2024/02/24 00:57:08;;;;;;;2.80;2.40;;;6.30;99.90;;;;;;780867;182;26524;-77
2024/02/24 00:59:34;;;;;;;7.17;3.93;;;6.30;99.90;;;;;;779829;182;26495;-78
2024/02/24 01:02:01;;;;;;;4.77;2.83;;;6.30;99.90;;;;;;776931;181;26505;-78
2024/02/24 01:04:29;;;;;;;3.33;2.27;;;6.30;99.90;;;;;;780317;183;26529;-77
2024/02/24 01:06:56;;;;;;;3.80;2.60;;;6.30;99.90;;;;;;777042;183;26555;-77
2024/02/24 01:09:23;;;;;;;4.30;2.20;;;6.30;99.90;;;;;;780612;183;26505;-79
2024/02/24 01:11:50;;;;;;;2.80;2.30;;;6.30;99.90;;;;;;775577;183;27124;-79
2024/02/24 01:14:16;;;;;;;4.27;2.13;;;6.30;99.90;;;;;;781369;183;26586;-78
2024/02/24 01:16:44;;;;;;;3.00;2.23;;;6.30;99.90;;;;;;778875;183;26495;-79
2024/02/24 01:19:11;;;;;;;3.03;2.10;;;6.30;99.90;;;;;;778410;182;26502;-79
2024/02/24 01:21:40;;;;;;;2.63;2.07;;;6.30;99.90;;;;;;785277;183;26531;-79
2024/02/24 01:24:07;;;;;;;4.27;2.37;;;6.20;99.90;;;;;;782713;183;26522;-78
2024/02/24 01:26:35;;;;;;;3.30;2.20;;;6.30;99.90;;;;;;783411;183;26527;-80
2024/02/24 01:29:01;;;;;;;2.80;1.80;;;6.20;99.90;;;;;;784808;183;27045;-79
2024/02/24 01:31:28;;;;;;;3.17;2.07;;;6.30;99.90;;;;;;782779;183;26737;-79
2024/02/24 01:33:55;;;;;;;3.87;2.13;;;6.30;99.90;;;;;;783938;183;26476;-80
2024/02/24 01:36:21;;;;;;;3.80;2.13;;;6.20;99.90;;;;;;784244;181;26486;-79
2024/02/24 01:38:48;;;;;;;2.40;1.80;;;6.20;99.90;;;;;;783799;182;26466;-79
2024/02/24 01:41:14;;;;;;;2.73;2.20;;;6.20;99.90;;;;;;781348;182;26490;-78
2024/02/24 01:43:41;;;;;;;3.47;2.00;;;6.20;99.90;;;;;;780946;182;26510;-79
2024/02/24 01:46:08;;;;;;;2.10;1.90;;;6.20;99.90;;;;;;781410;182;26517;-78
2024/02/24 01:48:34;;;;;;;3.30;2.00;;;6.20;99.90;;;;;;779372;183;26602;-78
2024/02/24 01:51:01;;;;;;;3.33;1.97;;;6.20;99.90;;;;;;779752;183;26483;-77
2024/02/24 01:53:28;;;;;;;2.33;1.70;;;6.20;99.90;;;;;;781723;182;26505;-80
2024/02/24 01:55:55;;;;;;;3.13;1.90;;;6.20;99.90;;;;;;785131;182;26509;-78
2024/02/24 01:58:21;;;;;;;3.43;2.10;;;6.20;99.90;;;;;;776651;182;27024;-77
2024/02/24 02:00:48;;;;;;;3.23;2.00;;;6.20;99.90;;;;;;779991;182;26499;-80
2024/02/24 02:03:14;;;;;;;4.43;2.20;;;6.10;99.90;;;;;;782914;182;26501;-80
2024/02/24 02:05:41;;;;;;;2.10;1.80;;;6.10;99.90;;;;;;785533;182;27134;-76
2024/02/24 02:08:08;;;;;;;3.57;2.10;;;6.10;99.90;;;;;;785892;183;26476;-79
2024/02/24 02:10:43;;;;;;;2.40;1.83;;;6.10;99.90;;;;;;781673;182;26486;-79
2024/02/24 02:13:09;;;;;;;3.70;2.00;;;6.10;99.90;;;;;;779217;182;26510;-79
2024/02/24 02:15:37;;;;;;;4.40;2.43;;;6.10;99.90;;;;;;778519;183;26565;-77
2024/02/24 02:18:05;;;;;;;2.40;2.20;;;6.10;99.90;;;;;;775248;182;26552;-76
2024/02/24 02:20:31;;;;;;;2.20;2.00;;;6.10;99.90;;;;;;772155;183;27185;-78
2024/02/24 02:22:58;;;;;;;3.13;2.30;;;6.10;99.90;;;;;;774403;183;26544;-78
2024/02/24 02:25:24;;;;;;;2.47;2.27;;;6.10;99.90;;;;;;779900;183;26561;-75
2024/02/24 02:27:52;;;;;;;4.07;2.20;;;6.00;99.90;;;;;;775139;183;26588;-78
2024/02/24 02:30:19;;;;;;;4.67;2.40;;;6.10;99.90;;;;;;774980;183;26559;-77
2024/02/24 02:32:46;;;;;;;4.13;2.73;;;6.00;99.90;;;;;;773328;183;26551;-77
2024/02/24 02:35:12;;;;;;;3.63;2.60;;;6.10;99.90;;;;;;772951;183;26773;-78
2024/02/24 02:37:39;;;;;;;4.43;2.67;;;6.10;99.90;;;;;;773398;183;27123;-77
2024/02/24 02:40:07;;;;;;;4.07;2.77;;;6.00;99.90;;;;;;773256;183;26565;-77
2024/02/24 02:42:34;;;;;;;4.57;3.17;;;6.00;99.90;;;;;;774712;183;26587;-78
2024/02/24 02:45:00;;;;;;;3.30;2.40;;;6.10;99.90;;;;;;776420;183;28107;-76
2024/02/24 02:47:26;;;;;;;3.93;2.43;;;6.00;99.90;;;;;;775935;182;26553;-78
2024/02/24 02:49:53;;;;;;;2.80;2.30;;;6.10;99.90;;;;;;780160;182;27180;-78
2024/02/24 02:52:20;;;;;;;5.77;3.10;;;6.10;99.90;;;;;;774605;182;26601;-78
2024/02/24 02:54:46;;;;;;;2.83;2.00;;;6.10;99.90;;;;;;774844;182;27028;-78
2024/02/24 02:57:13;;;;;;;3.20;2.27;;;6.00;99.90;;;;;;783177;182;27701;-77
2024/02/24 02:59:39;;;;;;;3.03;2.23;;;6.00;99.90;;;;;;772925;182;26503;-78
2024/02/24 03:02:07;;;;;;;3.20;2.40;;;6.00;99.90;;;;;;774290;182;26511;-78
2024/02/24 03:04:33;;;;;;;4.17;2.17;;;6.00;99.90;;;;;;780352;182;26528;-78
2024/02/24 03:07:00;;;;;;;3.70;2.13;;;6.00;99.90;;;;;;783235;182;26500;-80
2024/02/24 03:09:26;;;;;;;4.90;2.53;;;6.00;99.90;;;;;;780882;183;26483;-80
2024/02/24 03:11:53;;;;;;;3.40;2.30;;;6.00;99.90;;;;;;781225;183;26493;-79
2024/02/24 03:14:20;;;;;;;3.37;2.20;;;5.90;99.90;;;;;;778132;182;28079;-78
2024/02/24 03:16:48;;;;;;;4.20;2.63;;;5.90;99.90;;;;;;775614;182;26831;-79
2024/02/24 03:19:13;;;;;;;3.70;2.10;;;5.90;99.90;;;;;;770065;183;27135;-79
2024/02/24 03:21:39;;;;;;;6.70;2.60;;;5.90;99.90;;;;;;782792;182;26691;-79
2024/02/24 03:24:06;;;;;;;2.73;2.13;;;5.80;99.90;;;;;;776502;183;26509;-79
2024/02/24 03:26:33;;;;;;;3.23;2.17;;;5.80;99.90;;;;;;781019;183;27142;-78
2024/02/24 03:28:59;;;;;;;2.60;2.40;;;5.80;99.90;;;;;;773886;183;26531;-79
2024/02/24 03:31:26;;;;;;;5.47;2.00;;;5.70;99.90;;;;;;780432;183;27089;-79
2024/02/24 03:33:53;;;;;;;2.47;1.90;;;5.70;99.90;;;;;;776331;183;26544;-79
2024/02/24 03:36:20;;;;;;;5.03;2.20;;;5.70;99.90;;;;;;781663;183;27191;-79
2024/02/24 03:38:46;;;;;;;5.47;2.87;;;5.70;99.90;;;;;;785087;183;26543;-79
2024/02/24 03:41:13;;;;;;;2.60;2.40;;;5.60;99.90;;;;;;777233;183;26621;-78
2024/02/24 03:43:40;;;;;;;3.50;2.13;;;5.60;99.90;;;;;;771422;183;26505;-77
2024/02/24 03:46:06;;;;;;;3.07;2.10;;;5.60;99.90;;;;;;765669;183;26641;-77
2024/02/24 03:48:34;;;;;;;3.43;2.07;;;5.50;99.90;;;;;;782791;183;26576;-79
2024/02/24 03:51:00;;;;;;;3.00;2.53;;;5.50;99.90;;;;;;776054;183;27088;-77
2024/02/24 03:53:28;;;;;;;4.73;2.80;;;5.60;99.90;;;;;;771886;183;26601;-78
2024/02/24 03:55:53;;;;;;;3.23;2.40;;;5.60;99.90;;;;;;770336;183;27029;-77
2024/02/24 03:58:21;;;;;;;9.00;2.73;;;5.50;99.90;;;;;;774940;183;26587;-77
2024/02/24 04:00:47;;;;;;;4.03;2.40;;;5.50;99.90;;;;;;777658;180;27083;-78
2024/02/24 04:03:14;;;;;;;3.03;2.47;;;5.50;99.90;;;;;;778399;182;26578;-77
2024/02/24 04:05:40;;;;;;;3.07;2.20;;;5.40;99.90;;;;;;777731;182;27186;-77
2024/02/24 04:08:06;;;;;;;2.83;2.20;;;5.40;99.90;;;;;;782086;182;26615;-77
2024/02/24 04:10:33;;;;;;;2.97;2.67;;;5.40;99.90;;;;;;780188;183;27139;-77
2024/02/24 04:13:00;;;;;;;2.73;2.20;;;5.50;99.90;;;;;;783770;183;26575;-78
2024/02/24 04:15:26;;;;;;;2.97;2.40;;;5.50;99.90;;;;;;772777;182;27017;-79
2024/02/24 04:17:53;;;;;;;3.83;2.80;;;5.60;99.90;;;;;;781480;182;26588;-77
2024/02/24 04:20:20;;;;;;;2.87;2.50;;;5.60;99.90;;;;;;776937;182;26629;-77
2024/02/24 04:22:47;;;;;;;3.97;2.30;;;5.70;99.90;;;;;;776102;183;27627;-78
2024/02/24 04:25:13;;;;;;;3.00;2.30;;;5.60;99.90;;;;;;776741;182;26584;-79
2024/02/24 04:27:40;;;;;;;3.03;2.30;;;5.60;99.90;;;;;;775141;182;27103;-78
2024/02/24 04:30:07;;;;;;;4.10;2.20;;;5.70;99.90;;;;;;777962;182;26569;-77
2024/02/24 04:32:33;;;;;;;2.43;2.17;;;5.60;99.90;;;;;;778336;182;26789;-79
2024/02/24 04:35:00;;;;;;;2.87;2.40;;;5.70;99.90;;;;;;773159;183;26707;-78
2024/02/24 04:37:27;;;;;;;2.10;1.97;;;5.70;99.90;;;;;;775767;183;26589;-79
2024/02/24 04:39:53;;;;;;;3.50;2.13;;;5.70;99.90;;;;;;779840;183;26549;-79
2024/02/24 04:42:20;;;;;;;4.73;2.20;;;5.70;99.90;;;;;;778810;183;26519;-78
2024/02/24 04:44:49;;;;;;;2.77;2.33;;;5.70;99.90;;;;;;772431;183;26702;-79
2024/02/24 04:47:14;;;;;;;2.73;2.50;;;5.70;99.90;;;;;;782130;183;26534;-78
2024/02/24 04:49:40;;;;;;;2.03;1.83;;;5.70;99.90;;;;;;777224;183;26542;-78
2024/02/24 04:52:07;;;;;;;6.40;2.80;;;5.70;99.90;;;;;;777503;183;26511;-78
2024/02/24 04:54:33;;;;;;;4.50;2.30;;;5.70;99.90;;;;;;775547;183;27065;-78
2024/02/24 04:57:00;;;;;;;4.40;2.37;;;5.80;99.90;;;;;;786766;183;26486;-77
2024/02/24 04:59:27;;;;;;;3.50;2.10;;;5.80;99.90;;;;;;776550;183;27114;-77
2024/02/24 05:01:53;;;;;;;2.60;2.40;;;5.80;99.90;;;;;;778692;183;26588;-77
2024/02/24 05:04:20;;;;;;;3.57;2.60;;;5.80;99.90;;;;;;782127;183;27039;-79
2024/02/24 05:06:46;;;;;;;6.03;2.90;;;5.80;99.90;;;;;;772341;183;26570;-77
2024/02/24 05:09:13;;;;;;;3.17;2.30;;;5.70;99.90;;;;;;782424;183;27073;-75
2024/02/24 05:11:39;;;;;;;2.40;2.20;;;5.70;99.90;;;;;;776282;182;26592;-76
2024/02/24 05:14:06;;;;;;;3.00;2.37;;;5.70;99.90;;;;;;774421;182;26566;-79
2024/02/24 05:16:34;;;;;;;3.07;2.33;;;5.70;99.90;;;;;;773063;182;26628;-79
2024/02/24 05:19:00;;;;;;;5.07;2.53;;;5.70;99.90;;;;;;779293;182;26550;-77
2024/02/24 05:21:27;;;;;;;2.80;2.40;;;5.70;99.90;;;;;;777949;182;26514;-78
2024/02/24 05:23:53;;;;;;;2.83;2.30;;;5.70;99.90;;;;;;771100;182;26655;-79
2024/02/24 05:26:24;;;;;;;2.93;2.27;;;5.60;99.90;;;;;;775970;183;28167;-78
2024/02/24 05:28:50;;;;;;;3.07;2.40;;;5.60;99.90;;;;;;780838;178;26483;-77
2024/02/24 05:31:17;;;;;;;3.43;2.57;;;5.60;99.90;;;;;;782859;182;26775;-76
2024/02/24 05:33:43;;;;;;;4.10;2.70;;;5.50;99.90;;;;;;779517;182;26484;-79
2024/02/24 05:36:10;;;;;;;3.00;2.33;;;5.50;99.90;;;;;;779839;182;27756;-77
2024/02/24 05:38:37;;;;;;;3.47;2.60;;;5.50;99.90;;;;;;780296;183;26592;-78
2024/02/24 05:41:03;;;;;;;4.83;2.50;;;5.60;99.90;;;;;;780079;183;27049;-77
2024/02/24 05:43:32;;;;;;;3.67;2.70;;;5.60;99.90;;;;;;781499;182;26673;-78
2024/02/24 05:45:56;;;;;;;5.30;3.03;;;5.70;99.90;;;;;;772820;183;27096;-77
2024/02/24 05:48:23;;;;;;;5.70;2.77;;;5.70;99.90;;;;;;774730;183;26567;-77
2024/02/24 05:50:50;;;;;;;3.60;2.40;;;5.70;99.90;;;;;;776791;183;26565;-77
2024/02/24 05:53:16;;;;;;;4.47;2.80;;;5.80;99.90;;;;;;780544;183;26531;-77
2024/02/24 05:55:44;;;;;;;3.47;2.63;;;5.80;99.90;;;;;;769273;183;26527;-76
2024/02/24 05:58:10;;;;;;;3.40;2.70;;;5.80;99.90;;;;;;771230;183;26595;-77
2024/02/24 06:00:37;;;;;;;3.10;2.80;;;5.80;99.90;;;;;;776906;183;26511;-77
2024/02/24 06:03:07;;;;;;;4.50;3.53;;;5.90;99.90;;;;;;778624;183;27096;-74
2024/02/24 06:05:30;;;;;;;5.80;3.47;;;5.80;99.90;;;;;;779691;183;26522;-77
2024/02/24 06:07:57;;;;;;;4.10;3.30;;;5.90;99.90;;;;;;775978;183;27091;-77
2024/02/24 06:10:24;;;;;;;4.70;3.23;;;5.80;99.90;;;;;;773780;183;26496;-78
2024/02/24 06:12:50;;;;;;;3.40;3.10;;;5.80;99.90;;;;;;769533;183;27060;-78
2024/02/24 06:15:17;;;;;;;5.27;3.43;;;5.90;99.90;;;;;;776547;183;26548;-77
2024/02/24 06:17:43;;;;;;;3.93;3.47;;;5.90;99.90;;;;;;781924;183;27066;-77
2024/02/24 06:20:11;;;;;;;5.33;4.00;;;5.90;99.90;;;;;;776599;183;26579;-78
2024/02/24 06:22:37;;;;;;;3.80;3.40;;;5.90;99.90;;;;;;778054;180;26501;-77
2024/02/24 06:25:04;;;;;;;5.67;3.73;;;6.00;99.90;;;;;;776954;182;26588;-77
2024/02/24 06:27:31;;;;;;;4.53;3.30;;;6.00;99.90;;;;;;785540;182;26538;-78
2024/02/24 06:29:59;;;;;;;6.70;3.87;;;6.00;99.90;;;;;;786058;181;26459;-81
2024/02/24 06:32:25;;;;;;;5.63;3.67;;;6.00;99.90;;;;;;771208;182;26545;-77
2024/02/24 06:34:52;;;;;;;5.83;3.50;;;6.10;99.90;;;;;;771123;183;26570;-78
2024/02/24 06:37:18;;;;;;;5.60;4.20;;;6.10;99.90;;;;;;776264;183;26528;-78
2024/02/24 06:39:45;;;;;;;4.20;3.77;;;6.20;99.90;;;;;;782160;182;26516;-78
2024/02/24 06:42:12;;;;;;;6.47;3.60;;;6.20;99.90;;;;;;772500;183;26738;-78
2024/02/24 06:44:39;;;;;;;5.80;3.50;;;6.20;99.90;;;;;;782524;183;26530;-78
2024/02/24 06:47:05;;;;;;;4.80;3.57;;;6.30;99.90;;;;;;772767;183;27032;-79
2024/02/24 06:49:32;;;;;;;4.63;3.70;;;6.20;99.90;;;;;;780800;182;27586;-78
2024/02/24 06:51:59;;;;;;;3.90;3.20;;;6.30;99.90;;;;;;777960;182;26557;-76
2024/02/24 06:54:25;;;;;;;5.80;3.93;;;6.30;99.90;;;;;;773977;182;27164;-78
2024/02/24 06:56:52;;;;;;;5.03;3.57;;;6.30;99.90;;;;;;781938;183;26490;-78
2024/02/24 06:59:20;;;;;;;3.77;3.13;;;6.30;99.90;;;;;;774563;182;26541;-77
2024/02/24 07:01:47;;;;;;;8.03;3.40;;;6.30;99.90;;;;;;774104;183;26545;-77
2024/02/24 07:04:14;;;;;;;5.53;3.57;;;6.30;99.90;;;;;;782100;183;28160;-77
2024/02/24 07:06:40;;;;;;;4.93;3.40;;;6.40;99.90;;;;;;777849;183;26585;-76
2024/02/24 07:09:07;;;;;;;4.53;3.30;;;6.40;99.90;;;;;;777235;183;27665;-77
2024/02/24 07:11:33;;;;;;;4.73;3.50;;;6.50;99.90;;;;;;770682;183;26563;-76
2024/02/24 07:14:00;;;;;;;6.13;3.60;;;6.50;99.90;;;;;;777591;183;27106;-76
2024/02/24 07:16:27;;;;;;;4.00;3.00;;;6.50;99.90;;;;;;779989;183;26550;-78
2024/02/24 07:18:53;;;;;;;4.90;3.20;;;6.50;99.90;;;;;;779025;183;26599;-78
2024/02/24 07:21:21;;;;;;;3.47;2.60;;;6.50;99.90;;;;;;780831;183;26566;-77
2024/02/24 07:23:49;;;;;;;8.33;3.33;;;6.50;99.90;;;;;;778472;183;26534;-77
2024/02/24 07:26:15;;;;;;;4.07;2.90;;;6.50;99.90;;;;;;778161;183;26676;-78
2024/02/24 07:28:43;;;;;;;5.00;3.20;;;6.60;99.90;;;;;;774132;183;26608;-77
2024/02/24 07:31:09;;;;;;;3.70;3.00;;;6.60;99.90;;;;;;774465;183;26678;-78
2024/02/24 07:33:36;;;;;;;3.50;3.07;;;6.60;99.90;;;;;;777056;182;26516;-78
2024/02/24 07:36:02;;;;;;;5.67;3.17;;;6.60;99.90;;;;;;774897;182;27098;-77
2024/02/24 07:38:30;;;;;;;4.23;2.80;;;6.70;99.90;;;;;;781772;182;26559;-79
2024/02/24 07:40:56;;;;;;;6.23;3.03;;;6.60;99.90;;;;;;787583;182;26493;-77
2024/02/24 07:43:22;;;;;;;6.73;3.50;;;6.70;99.90;;;;;;782926;182;26509;-78
2024/02/24 07:45:50;;;;;;;3.53;2.70;;;6.70;99.90;;;;;;783282;182;27527;-78
2024/02/24 07:48:18;;;;;;;5.40;2.80;;;6.60;99.90;;;;;;773392;182;26479;-77
2024/02/24 07:50:45;;;;;;;5.20;3.60;;;6.60;99.90;;;;;;775156;182;26524;-77
2024/02/24 07:53:11;;;;;;;5.23;3.30;;;6.60;99.90;;;;;;783115;183;26479;-77
2024/02/24 07:55:38;;;;;;;6.27;3.43;;;6.60;99.90;;;;;;782013;182;26484;-77
2024/02/24 07:58:05;;;;;;;6.27;3.20;;;6.60;99.90;;;;;;784048;183;26501;-78
2024/02/24 08:00:31;;;;;;;5.63;3.83;;;6.50;99.90;;;;;;775232;183;27142;-79
2024/02/24 08:02:58;;;;;;;8.77;4.07;;;6.50;99.90;;;;;;780859;183;26494;-78
2024/02/24 08:05:25;;;;;;;9.77;4.93;;;6.50;99.90;;;;;;781716;182;27747;-78
2024/02/24 08:07:51;;;;;;;9.97;4.97;;;6.40;99.90;;;;;;777991;183;26518;-79
2024/02/24 08:10:18;;;;;;;6.60;3.83;;;6.50;99.90;;;;;;776290;182;26536;-78
2024/02/24 08:12:44;;;;;;;5.93;3.10;;;6.50;99.90;;;;;;774582;183;26499;-78
2024/02/24 08:15:11;;;;;;;3.33;2.87;;;6.50;99.90;;;;;;777095;183;28723;-78
2024/02/24 08:17:38;;;;;;;5.70;2.80;;;6.60;99.90;;;;;;785660;182;27073;-78
2024/02/24 08:20:06;;;;;;;3.10;2.70;;;6.60;99.90;;;;;;774239;183;26518;-78
2024/02/24 08:22:32;;;;;;;5.17;2.37;;;6.60;99.90;;;;;;776038;183;26510;-80
2024/02/24 08:24:58;;;;;;;6.77;2.43;;;6.60;99.90;;;;;;783983;183;27769;-79
2024/02/24 08:27:25;;;;;;;5.17;2.40;;;6.60;99.90;;;;;;776626;183;26566;-78
2024/02/24 08:29:52;;;;;;;2.57;2.10;;;6.50;99.90;;;;;;776067;183;26583;-78
2024/02/24 08:32:19;;;;;;;2.13;1.93;;;6.50;99.90;;;;;;778181;183;26515;-78
2024/02/24 08:34:46;;;;;;;3.97;2.20;;;6.40;99.90;;;;;;777019;183;26516;-77
2024/02/24 08:37:12;;;;;;;3.53;1.97;;;6.40;99.90;;;;;;775610;182;27068;-79
2024/02/24 08:39:39;;;;;;;3.63;2.00;;;6.40;99.90;;;;;;778107;183;26510;-82
2024/02/24 08:42:05;;;;;;;3.53;2.17;;;6.30;99.90;;;;;;777786;183;26536;-78
2024/02/24 08:44:32;;;;;;;7.40;5.00;;;6.40;99.90;;;;;;779807;183;26499;-77
2024/02/24 08:46:59;;;;;;;14.40;6.53;;;6.30;99.90;;;;;;783215;180;26490;-79
2024/02/24 08:49:26;;;;;;;8.20;3.80;;;6.30;99.90;;;;;;777160;182;26612;-79
2024/02/24 08:51:53;;;;;;;12.73;6.60;;;6.20;99.90;;;;;;779471;182;26539;-78
2024/02/24 08:54:20;;;;;;;6.30;3.10;;;6.30;99.90;;;;;;774945;182;26529;-79
2024/02/24 08:56:46;;;;;;;6.87;3.67;;;6.30;99.90;;;;;;780319;182;26505;-78
2024/02/24 08:59:13;;;;;;;8.13;3.93;;;6.30;99.90;;;;;;779093;182;27006;-78
2024/02/24 09:01:40;;;;;;;4.30;2.40;;;6.40;99.90;;;;;;779807;182;26588;-79
2024/02/24 09:04:06;;;;;;;6.13;2.20;;;6.40;99.90;;;;;;779565;183;27064;-80
2024/02/24 09:06:35;;;;;;;3.83;2.40;;;6.40;99.90;;;;;;781401;183;26548;-78
2024/02/24 09:09:00;;;;;;;3.40;2.47;;;6.50;99.90;;;;;;778546;183;26471;-80
2024/02/24 09:11:27;;;;;;;3.23;2.37;;;6.70;99.90;;;;;;782653;182;26512;-78
2024/02/24 09:13:54;;;;;;;2.00;1.80;;;6.80;99.90;;;;;;776719;182;26586;-79
2024/02/24 09:16:21;;;;;;;2.13;1.30;;;6.80;99.90;;;;;;782957;182;27038;-79
2024/02/24 09:18:47;;;;;;;4.10;1.50;;;6.80;99.90;;;;;;776819;182;26495;-80
2024/02/24 09:21:15;;;;;;;2.63;1.60;;;7.00;99.90;;;;;;776283;182;26654;-78
2024/02/24 09:23:42;;;;;;;1.50;1.40;;;7.10;99.90;;;;;;782445;183;26588;-77
2024/02/24 09:26:09;;;;;;;2.20;1.60;;;7.10;99.90;;;;;;783085;183;26556;-79
2024/02/24 09:28:35;;;;;;;1.80;1.53;;;7.20;99.90;;;;;;783170;183;26507;-78
2024/02/24 09:31:03;;;;;;;1.83;1.70;;;7.20;99.90;;;;;;776337;183;27194;-80
2024/02/24 09:33:29;;;;;;;3.57;2.10;;;7.30;99.90;;;;;;772788;183;26581;-79
2024/02/24 09:35:56;;;;;;;2.47;1.90;;;7.40;99.90;;;;;;783100;183;26498;-80
2024/02/24 09:38:22;;;;;;;66.80;27.83;;;7.60;99.90;;;;;;780796;183;27092;-79
2024/02/24 09:40:49;;;;;;;20.07;10.07;;;7.60;99.90;;;;;;780802;183;26495;-79
2024/02/24 09:43:15;;;;;;;7.30;4.27;;;7.70;99.90;;;;;;771386;183;26488;-78
2024/02/24 09:45:42;;;;;;;6.70;3.83;;;8.00;99.90;;;;;;780953;183;26574;-77
2024/02/24 09:48:10;;;;;;;4.00;2.47;;;8.30;99.90;;;;;;780164;183;26481;-79
2024/02/24 09:50:36;;;;;;;4.37;3.10;;;8.50;99.90;;;;;;775813;183;26499;-80
2024/02/24 09:53:03;;;;;;;3.33;1.80;;;8.50;99.90;;;;;;776741;183;27311;-79
2024/02/24 09:55:30;;;;;;;6.23;3.20;;;8.30;99.90;;;;;;778843;183;26475;-80
2024/02/24 09:57:57;;;;;;;4.30;2.43;;;8.40;99.90;;;;;;782816;180;26552;-79
2024/02/24 10:00:24;;;;;;;2.40;1.67;;;8.60;99.90;;;;;;781909;182;26510;-77
2024/02/24 10:02:50;;;;;;;3.20;2.07;;;8.50;99.90;;;;;;778183;182;27150;-81
2024/02/24 10:05:17;;;;;;;2.97;1.90;;;8.50;99.90;;;;;;780311;182;26493;-79
2024/02/24 10:07:44;;;;;;;3.67;2.00;;;8.50;99.60;;;;;;780383;183;26490;-80
2024/02/24 10:10:11;;;;;;;2.80;2.07;;;8.60;99.00;;;;;;785255;183;26538;-79
2024/02/24 10:12:37;;;;;;;3.43;1.70;;;8.40;99.20;;;;;;780251;180;26506;-77
2024/02/24 10:15:04;;;;;;;1.67;1.57;;;8.30;99.90;;;;;;779298;183;27045;-79
2024/02/24 10:17:31;;;;;;;1.87;1.70;;;8.10;98.40;;;;;;777048;183;26608;-79
2024/02/24 10:19:58;;;;;;;6.03;3.50;;;8.50;98.70;;;;;;779488;182;27048;-82
2024/02/24 10:22:24;;;;;;;25.80;11.53;;;8.40;96.20;;;;;;781730;180;26526;-80
2024/02/24 10:24:51;;;;;;;7.87;4.50;;;8.40;96.20;;;;;;781245;183;26517;-76
2024/02/24 10:27:17;;;;;;;31.60;16.30;;;8.60;98.10;;;;;;774232;183;26483;-78
2024/02/24 10:29:44;;;;;;;65.50;32.87;;;8.80;98.80;;;;;;786892;182;26505;-80
2024/02/24 10:32:11;;;;;;;6.93;3.87;;;8.70;97.40;;;;;;779039;183;26502;-80
2024/02/24 10:34:37;;;;;;;3.30;2.40;;;8.60;98.70;;;;;;776534;183;27108;-78
2024/02/24 10:37:04;;;;;;;2.97;2.00;;;8.50;99.70;;;;;;776643;183;27085;-79
2024/02/24 10:39:34;;;;;;;3.97;2.20;;;8.30;99.50;;;;;;779667;183;26500;-79
2024/02/24 10:41:59;;;;;;;9.93;2.63;;;8.00;99.90;;;;;;776752;183;26502;-77
2024/02/24 10:44:26;;;;;;;7.83;4.43;;;8.10;99.90;;;;;;779836;183;26498;-80
2024/02/24 10:46:53;;;;;;;20.33;10.53;;;8.00;99.60;;;;;;775946;183;26496;-80
2024/02/24 10:49:20;;;;;;;13.07;7.10;;;8.00;99.60;;;;;;770279;183;26535;-79
2024/02/24 10:51:48;;;;;;;9.03;4.93;;;8.00;99.70;;;;;;775192;183;26647;-80
2024/02/24 10:54:14;;;;;;;5.23;2.50;;;8.20;99.40;;;;;;774357;183;26520;-80
2024/02/24 10:56:41;;;;;;;4.40;2.30;;;8.10;98.50;;;;;;779444;183;26542;-80
2024/02/24 10:59:09;;;;;;;4.20;1.90;;;8.10;98.50;;;;;;783032;182;26503;-79
2024/02/24 11:01:43;;;;;;;2.97;1.90;;;8.00;99.10;;;;;;785664;180;26495;-78
2024/02/24 11:04:10;;;;;;;3.03;2.20;;;7.90;99.90;;;;;;779374;183;27126;-79
2024/02/24 11:06:44;;;;;;;1.87;1.67;;;7.90;99.90;;;;;;776299;183;27318;-80
2024/02/24 11:09:13;;;;;;;4.87;2.93;;;7.30;99.90;;;;;;782880;181;26568;-80
2024/02/24 11:11:41;;;;;;;33.43;17.13;;;7.20;99.90;;;;;;780186;180;26508;-79
2024/02/24 11:14:07;;;;;;;140.03;55.97;;;7.50;99.90;;;;;;779502;182;27038;-80
2024/02/24 11:16:36;;;;;;;39.50;18.77;;;8.90;99.90;;;;;;783971;182;26503;-81
2024/02/24 11:19:10;;;;;;;20.53;11.73;;;10.40;99.90;;;;;;777760;182;26496;-79
2024/02/24 11:21:42;;;;;;;4.50;2.37;;;11.70;94.90;;;;;;776825;183;26506;-79
2024/02/24 11:24:16;;;;;;;7.80;4.80;;;10.30;93.90;;;;;;777869;183;26508;-80
2024/02/24 11:26:42;;;;;;;12.83;7.30;;;10.30;93.60;;;;;;776106;183;26494;-79
2024/02/24 11:29:09;;;;;;;5.27;3.07;;;9.60;96.80;;;;;;778211;183;26486;-78
2024/02/24 11:31:35;;;;;;;3.57;2.97;;;9.30;96.80;;;;;;775351;183;27126;-79
2024/02/24 11:34:03;;;;;;;62.97;27.73;;;9.50;97.20;;;;;;781346;183;26495;-79
2024/02/24 11:36:30;;;;;;;9.53;4.93;;;9.60;97.30;;;;;;779466;182;26495;-79
2024/02/24 11:38:56;;;;;;;9.87;4.77;;;10.10;94.80;;;;;;775475;182;26509;-78
2024/02/24 11:41:23;;;;;;;32.67;17.00;;;10.90;92.90;;;;;;775439;182;27033;-78
2024/02/24 11:43:49;;;;;;;3.97;2.50;;;12.40;87.90;;;;;;778285;183;26524;-79
2024/02/24 11:46:16;;;;;;;54.57;24.80;;;12.30;72.20;;;;;;778364;183;27068;-83
2024/02/24 11:48:42;;;;;;;41.37;19.27;;;12.00;85.10;;;;;;773732;183;26506;-79
2024/02/24 11:51:09;;;;;;;23.77;11.20;;;11.00;82.80;;;;;;780474;183;26495;-79
2024/02/24 11:53:36;;;;;;;3.80;2.50;;;11.50;80.10;;;;;;783145;183;26472;-79
2024/02/24 11:56:02;;;;;;;31.87;14.43;;;10.80;78.70;;;;;;783840;183;26507;-78
2024/02/24 11:58:29;;;;;;;11.80;6.00;;;10.70;83.50;;;;;;779697;183;26515;-79
2024/02/24 12:00:57;;;;;;;7.43;4.10;;;9.90;86.10;;;;;;778811;183;26572;-78
2024/02/24 12:03:23;;;;;;;13.87;7.20;;;9.90;86.10;;;;;;779209;180;26499;-78
2024/02/24 12:05:50;;;;;;;10.10;5.20;;;10.10;87.50;;;;;;772894;183;26489;-80
2024/02/24 12:08:16;;;;;;;4.37;2.83;;;11.10;83.20;;;;;;777194;183;26513;-77
2024/02/24 12:10:44;;;;;;;6.23;3.97;;;11.80;76.80;;;;;;776629;183;26522;-78
2024/02/24 12:13:10;;;;;;;2.33;1.70;;;11.80;76.50;;;;;;771794;183;26523;-79
2024/02/24 12:15:38;;;;;;;7.27;2.93;;;10.60;71.00;;;;;;776018;183;27323;-79
2024/02/24 12:18:05;;;;;;;66.03;26.77;;;11.10;69.20;;;;;;795276;169;26863;-78
2024/02/24 12:20:33;;;;;;;78.70;26.43;;;11.90;68.30;;;;;;802502;177;26488;-79
2024/02/24 12:23:14;;;;;;;34.77;13.87;;;12.30;61.70;;;;;;798443;179;26985;-78
2024/02/24 12:25:39;;;;;;;12.20;6.07;;;12.50;58.30;;;;;;802015;179;26493;-78
2024/02/24 12:28:06;;;;;;;34.97;18.07;;;12.10;60.20;;;;;;800032;179;26483;-78
2024/02/24 12:30:36;;;;;;;22.63;9.43;;;11.60;61.00;;;;;;783742;183;27028;-79
2024/02/24 12:33:03;;;;;;;13.93;7.53;;;11.60;65.20;;;;;;787191;180;26538;-78
2024/02/24 12:35:29;;;;;;;5.50;3.10;;;11.10;70.00;;;;;;797967;179;26441;-79
2024/02/24 12:37:56;;;;;;;25.80;12.93;;;10.00;72.40;;;;;;796224;180;26854;-79
2024/02/24 12:40:32;;;;;;;9.10;5.07;;;9.70;87.70;;;;;;797247;180;26450;-79
2024/02/24 12:42:59;;;;;;;6.00;3.10;;;9.50;85.50;;;;;;794465;180;26544;-78
2024/02/24 12:45:26;;;;;;;7.37;3.60;;;9.40;87.00;;;;;;794628;179;27443;-78
2024/02/24 12:47:52;;;;;;;66.50;27.57;;;9.60;88.70;;;;;;799555;179;26452;-77
2024/02/24 12:50:19;;;;;;;3.27;2.50;;;11.30;80.10;;;;;;798639;180;27855;-78
2024/02/24 12:52:45;;;;;;;11.67;5.53;;;12.20;62.40;;;;;;794971;179;26458;-78